Time;durP1;ratioP1;P1;durP2;ratioP2;P2;SDS_P1;SDS_P2;PMS_P1;PMS_P2;Temp;Humidity;BMP_temperature;BMP_pressure;BME280_temperature;BME280_humidity;BME280_pressure;Samples;Min_cycle;Max_cycle;Signal;HPM_P1;HPM_P2
2024/02/15 00:00:03;;;;;;;4.27;3.20;;;12.30;99.90;;;;;;5000821;28;20456;-26
2024/02/15 00:02:30;;;;;;;5.03;3.47;;;12.30;99.90;;;;;;4998128;28;20538;-25
2024/02/15 00:04:56;;;;;;;5.37;4.50;;;12.30;99.90;;;;;;4984810;28;20478;-26
2024/02/15 00:07:26;;;;;;;6.70;4.17;;;12.30;99.90;;;;;;4983256;28;20457;-26
2024/02/15 00:09:56;;;;;;;4.87;3.63;;;12.30;99.90;;;;;;5000453;28;20515;-26
2024/02/15 00:12:24;;;;;;;7.20;4.53;;;12.30;99.90;;;;;;5000127;28;20496;-26
2024/02/15 00:14:58;;;;;;;5.00;3.80;;;12.30;99.90;;;;;;4999267;28;20433;-26
2024/02/15 00:17:25;;;;;;;5.27;3.70;;;12.30;99.90;;;;;;5001653;28;20433;-25
2024/02/15 00:19:53;;;;;;;4.60;3.90;;;12.30;99.90;;;;;;4999604;28;20469;-26
2024/02/15 00:22:21;;;;;;;4.73;3.80;;;12.30;99.90;;;;;;4965069;28;20584;-26
2024/02/15 00:24:51;;;;;;;4.63;4.00;;;12.30;99.90;;;;;;4998557;28;20455;-26
2024/02/15 00:27:17;;;;;;;4.30;3.90;;;12.30;99.90;;;;;;4999729;28;20463;-26
2024/02/15 00:29:44;;;;;;;8.60;4.67;;;12.30;99.90;;;;;;4982309;28;20528;-27
2024/02/15 00:32:10;;;;;;;4.90;4.37;;;12.30;99.90;;;;;;5001981;28;20452;-26
2024/02/15 00:34:39;;;;;;;6.63;3.87;;;12.40;99.90;;;;;;4982509;28;20843;-26
2024/02/15 00:37:05;;;;;;;6.83;4.60;;;12.40;99.90;;;;;;5001747;28;21481;-26
2024/02/15 00:39:34;;;;;;;6.47;4.03;;;12.30;99.90;;;;;;5000281;28;20447;-26
2024/02/15 00:42:08;;;;;;;6.37;3.90;;;12.40;99.90;;;;;;4966096;28;21293;-26
2024/02/15 00:44:43;;;;;;;10.07;5.00;;;12.40;99.90;;;;;;5000121;28;20436;-25
2024/02/15 00:47:12;;;;;;;5.77;4.00;;;12.40;99.90;;;;;;4983325;28;20439;-26
2024/02/15 00:49:39;;;;;;;5.87;4.33;;;12.30;99.90;;;;;;4999818;28;20504;-26
2024/02/15 00:52:05;;;;;;;7.57;5.13;;;12.30;99.90;;;;;;4980589;28;20448;-25
2024/02/15 00:54:31;;;;;;;8.10;4.63;;;12.40;99.90;;;;;;5000014;28;20450;-26
2024/02/15 00:56:57;;;;;;;5.40;4.60;;;12.40;99.90;;;;;;4979513;28;21039;-26
2024/02/15 00:59:28;;;;;;;6.57;5.40;;;12.40;99.90;;;;;;4999705;28;20436;-26
2024/02/15 01:01:54;;;;;;;7.97;5.63;;;12.40;99.90;;;;;;4999085;28;20464;-26
2024/02/15 01:04:22;;;;;;;7.10;4.97;;;12.40;99.90;;;;;;4999620;28;20459;-26
2024/02/15 01:06:48;;;;;;;6.00;4.87;;;12.40;99.90;;;;;;5000471;28;21285;-26
2024/02/15 01:09:14;;;;;;;5.17;4.67;;;12.40;99.90;;;;;;5002665;28;20428;-26
2024/02/15 01:11:43;;;;;;;5.57;4.60;;;12.30;99.90;;;;;;4999468;28;20425;-26
2024/02/15 01:14:12;;;;;;;9.10;4.60;;;12.40;99.90;;;;;;4965691;28;21073;-26
2024/02/15 01:16:37;;;;;;;5.10;4.60;;;12.40;99.90;;;;;;5000015;28;20424;-26
2024/02/15 01:19:06;;;;;;;8.00;6.07;;;12.40;99.90;;;;;;4999452;28;20522;-26
2024/02/15 01:21:34;;;;;;;7.20;4.90;;;12.40;99.90;;;;;;4981555;28;20498;-26
2024/02/15 01:24:06;;;;;;;7.00;4.40;;;12.30;99.90;;;;;;4999343;28;20464;-26
2024/02/15 01:26:35;;;;;;;5.13;4.63;;;12.40;99.90;;;;;;4981702;28;20451;-26
2024/02/15 01:29:03;;;;;;;8.57;5.10;;;12.30;99.90;;;;;;4999372;28;20482;-26
2024/02/15 01:31:29;;;;;;;9.00;4.70;;;12.40;99.90;;;;;;4996830;28;20452;-26
2024/02/15 01:33:57;;;;;;;5.30;4.27;;;12.40;99.90;;;;;;4981755;28;20460;-25
2024/02/15 01:36:26;;;;;;;5.90;4.70;;;12.30;99.90;;;;;;4999348;28;21241;-26
2024/02/15 01:38:54;;;;;;;9.03;5.10;;;12.40;99.90;;;;;;4998348;28;20940;-26
2024/02/15 01:41:20;;;;;;;6.20;3.83;;;12.40;99.90;;;;;;4964920;28;20467;-26
2024/02/15 01:43:47;;;;;;;6.43;5.20;;;12.30;99.90;;;;;;4998355;28;20898;-25
2024/02/15 01:46:17;;;;;;;5.90;4.00;;;12.40;99.90;;;;;;4999364;28;21132;-26
2024/02/15 01:48:44;;;;;;;7.63;5.20;;;12.30;99.90;;;;;;5005145;28;21017;-26
2024/02/15 01:51:16;;;;;;;9.17;4.30;;;12.40;99.90;;;;;;4972043;28;20428;-25
2024/02/15 01:53:47;;;;;;;5.70;3.70;;;12.40;99.90;;;;;;4986508;28;20448;-26
2024/02/15 01:56:17;;;;;;;5.37;4.70;;;12.30;99.90;;;;;;4972044;28;20452;-26
2024/02/15 01:58:45;;;;;;;6.53;4.90;;;12.30;99.90;;;;;;5005257;28;20448;-26
2024/02/15 02:01:15;;;;;;;9.63;3.90;;;12.30;99.90;;;;;;4989367;28;20428;-26
2024/02/15 02:03:41;;;;;;;6.13;4.20;;;12.40;99.90;;;;;;4987924;28;20478;-26
2024/02/15 02:06:10;;;;;;;5.57;4.53;;;12.30;99.90;;;;;;4972100;28;20435;-26
2024/02/15 02:08:36;;;;;;;4.30;3.90;;;12.40;99.90;;;;;;5006780;28;20527;-26
2024/02/15 02:11:04;;;;;;;5.90;4.00;;;12.30;99.90;;;;;;5005704;28;20444;-26
2024/02/15 02:13:31;;;;;;;4.40;4.00;;;12.40;99.90;;;;;;4988031;28;20451;-26
2024/02/15 02:15:57;;;;;;;4.77;4.37;;;12.30;99.90;;;;;;5009673;28;20440;-26
2024/02/15 02:18:28;;;;;;;5.13;4.13;;;12.30;99.90;;;;;;5004098;28;20432;-26
2024/02/15 02:21:00;;;;;;;7.00;4.60;;;12.30;99.90;;;;;;5005172;28;20424;-26
2024/02/15 02:23:31;;;;;;;7.13;4.20;;;12.40;99.90;;;;;;5004980;28;20531;-26
2024/02/15 02:25:58;;;;;;;4.80;3.80;;;12.40;99.90;;;;;;5006153;28;20451;-26
2024/02/15 02:28:26;;;;;;;6.83;4.23;;;12.40;99.90;;;;;;4987961;28;20879;-26
2024/02/15 02:30:53;;;;;;;6.17;4.20;;;12.40;99.90;;;;;;5004475;28;20787;-26
2024/02/15 02:33:21;;;;;;;6.40;3.63;;;12.30;99.90;;;;;;5005226;28;20474;-26
2024/02/15 02:35:50;;;;;;;6.00;4.30;;;12.30;99.90;;;;;;4986739;28;20455;-26
2024/02/15 02:38:18;;;;;;;5.07;3.80;;;12.40;99.90;;;;;;4987884;28;21077;-26
2024/02/15 02:40:44;;;;;;;3.80;3.50;;;12.30;99.90;;;;;;5004927;28;20460;-26
2024/02/15 02:43:10;;;;;;;4.23;3.73;;;12.40;99.90;;;;;;4991353;28;20591;-25
2024/02/15 02:45:37;;;;;;;5.77;4.40;;;12.40;99.90;;;;;;5006011;28;20452;-26
2024/02/15 02:48:06;;;;;;;3.90;3.47;;;12.30;99.90;;;;;;5006837;28;21094;-26
2024/02/15 02:50:32;;;;;;;6.50;4.30;;;12.30;99.90;;;;;;4986168;28;20428;-26
2024/02/15 02:52:59;;;;;;;4.83;4.23;;;12.30;99.90;;;;;;4987966;28;20459;-26
2024/02/15 02:55:26;;;;;;;5.63;3.73;;;12.30;99.90;;;;;;5004702;28;20431;-26
2024/02/15 02:57:55;;;;;;;6.70;3.97;;;12.40;99.90;;;;;;5004299;28;20439;-26
2024/02/15 03:00:23;;;;;;;5.10;3.97;;;12.40;99.90;;;;;;5000878;28;20852;-26
2024/02/15 03:02:51;;;;;;;6.00;3.63;;;12.40;99.90;;;;;;4968208;28;20476;-26
2024/02/15 03:05:20;;;;;;;5.10;3.80;;;12.30;99.90;;;;;;4983908;28;21322;-26
2024/02/15 03:07:46;;;;;;;7.83;4.00;;;12.30;99.90;;;;;;5001689;28;21571;-26
2024/02/15 03:10:13;;;;;;;4.63;3.83;;;12.30;99.90;;;;;;5000997;28;21140;-26
2024/02/15 03:12:46;;;;;;;5.13;3.43;;;12.40;99.90;;;;;;5002051;28;20454;-26
2024/02/15 03:15:13;;;;;;;5.40;4.10;;;12.40;99.90;;;;;;5002624;28;20869;-26
2024/02/15 03:17:42;;;;;;;4.80;3.53;;;12.30;99.90;;;;;;4983139;28;20480;-26
2024/02/15 03:20:28;;;;;;;5.03;4.17;;;12.30;99.90;;;;;;4983213;28;20510;-26
2024/02/15 03:22:58;;;;;;;3.87;3.47;;;12.40;99.90;;;;;;5000891;28;20523;-26
2024/02/15 03:25:26;;;;;;;5.60;4.20;;;12.40;99.90;;;;;;5000842;28;20429;-26
2024/02/15 03:28:03;;;;;;;5.23;4.17;;;12.40;99.90;;;;;;4982239;28;21293;-26
2024/02/15 03:30:30;;;;;;;4.63;4.00;;;12.30;99.90;;;;;;4966889;28;20440;-26
2024/02/15 03:32:59;;;;;;;4.27;3.77;;;12.40;99.90;;;;;;4984032;28;20448;-26
2024/02/15 03:35:31;;;;;;;5.40;3.80;;;12.30;99.90;;;;;;5001801;28;20460;-27
2024/02/15 03:37:58;;;;;;;5.93;3.83;;;12.40;99.90;;;;;;4983273;28;20441;-27
2024/02/15 03:40:26;;;;;;;5.87;3.83;;;12.40;99.90;;;;;;4982964;28;20464;-27
2024/02/15 03:42:56;;;;;;;6.90;3.63;;;12.40;99.90;;;;;;5001658;28;20560;-24
2024/02/15 03:45:24;;;;;;;6.47;3.90;;;12.30;99.90;;;;;;5000831;28;20437;-27
2024/02/15 03:47:51;;;;;;;4.57;4.00;;;12.40;99.90;;;;;;4983360;28;20433;-25
2024/02/15 03:50:21;;;;;;;3.87;3.47;;;12.40;99.90;;;;;;5000953;28;20416;-26
2024/02/15 03:52:48;;;;;;;4.63;4.17;;;12.40;99.90;;;;;;4977600;28;20456;-26
2024/02/15 03:55:18;;;;;;;5.20;4.20;;;12.40;99.90;;;;;;5001069;28;20449;-26
2024/02/15 03:57:48;;;;;;;4.87;4.00;;;12.30;99.90;;;;;;5000295;23;20486;-26
2024/02/15 04:00:20;;;;;;;4.13;3.70;;;12.40;99.90;;;;;;5038588;28;20427;-25
2024/02/15 04:02:50;;;;;;;7.83;4.37;;;12.40;99.90;;;;;;5039639;28;20462;-26
2024/02/15 04:05:18;;;;;;;4.33;3.40;;;12.40;99.90;;;;;;5034970;28;20445;-26
2024/02/15 04:07:47;;;;;;;6.13;4.33;;;12.40;99.90;;;;;;5039268;28;20419;-27
2024/02/15 04:10:13;;;;;;;5.13;3.80;;;12.30;99.90;;;;;;5059388;28;21003;-26
2024/02/15 04:12:49;;;;;;;5.23;3.77;;;12.40;99.90;;;;;;5039567;28;20474;-26
2024/02/15 04:15:18;;;;;;;3.83;3.43;;;12.40;99.90;;;;;;5041441;28;20519;-27
2024/02/15 04:17:44;;;;;;;6.60;3.73;;;12.40;99.90;;;;;;5038773;28;20474;-26
2024/02/15 04:20:15;;;;;;;8.70;3.83;;;12.40;99.90;;;;;;5041127;28;21237;-26
2024/02/15 04:22:43;;;;;;;4.70;4.20;;;12.40;99.90;;;;;;5035341;28;20466;-26
2024/02/15 04:25:17;;;;;;;8.23;3.87;;;12.40;99.90;;;;;;5057109;28;20426;-27
2024/02/15 04:27:45;;;;;;;6.40;4.30;;;12.40;99.90;;;;;;5048916;28;20434;-27
2024/02/15 04:30:15;;;;;;;4.93;3.37;;;12.40;99.90;;;;;;5055908;28;20465;-26
2024/02/15 04:32:41;;;;;;;4.97;3.90;;;12.40;99.90;;;;;;5055800;28;20522;-27
2024/02/15 04:35:09;;;;;;;4.43;3.37;;;12.40;99.90;;;;;;5037527;28;20426;-26
2024/02/15 04:37:37;;;;;;;4.43;3.53;;;12.40;99.90;;;;;;5041299;28;20438;-28
2024/02/15 04:40:09;;;;;;;4.23;3.70;;;12.40;99.90;;;;;;5042185;28;21169;-26
2024/02/15 04:42:39;;;;;;;5.07;4.27;;;12.40;99.90;;;;;;5037488;28;20492;-28
2024/02/15 04:45:11;;;;;;;6.63;3.90;;;12.40;99.90;;;;;;5013500;28;21056;-26
2024/02/15 04:47:56;;;;;;;4.97;3.27;;;12.40;99.90;;;;;;4999322;28;20889;-28
2024/02/15 04:50:23;;;;;;;4.57;4.10;;;12.40;99.90;;;;;;5061167;28;20471;-28
2024/02/15 04:52:49;;;;;;;4.50;3.67;;;12.40;99.90;;;;;;5055045;28;20441;-26
2024/02/15 04:55:18;;;;;;;4.93;3.50;;;12.40;99.90;;;;;;5042236;28;20426;-28
2024/02/15 04:57:48;;;;;;;4.67;3.80;;;12.40;99.90;;;;;;5037064;28;20540;-27
2024/02/15 05:00:15;;;;;;;6.47;3.70;;;12.40;99.90;;;;;;5025549;28;20507;-28
2024/02/15 05:02:44;;;;;;;4.27;3.23;;;12.40;99.90;;;;;;5060614;28;20561;-27
2024/02/15 05:05:13;;;;;;;4.70;3.30;;;12.40;99.90;;;;;;5056422;28;20956;-28
2024/02/15 05:07:44;;;;;;;4.07;3.47;;;12.40;99.90;;;;;;5041960;28;20426;-27
2024/02/15 05:10:14;;;;;;;5.00;3.83;;;12.40;99.90;;;;;;5042036;28;20480;-28
2024/02/15 05:12:42;;;;;;;3.70;3.03;;;12.40;99.90;;;;;;5036975;28;20585;-26
2024/02/15 05:15:11;;;;;;;3.97;3.27;;;12.40;99.90;;;;;;5019104;28;20442;-37
2024/02/15 05:17:40;;;;;;;4.27;3.00;;;12.40;99.90;;;;;;5028242;28;20976;-26
2024/02/15 05:20:13;;;;;;;3.93;3.53;;;12.40;99.90;;;;;;5041275;28;20517;-29
2024/02/15 05:22:43;;;;;;;4.17;3.10;;;12.40;99.90;;;;;;5049945;28;20473;-28
2024/02/15 05:25:09;;;;;;;3.80;3.50;;;12.40;99.90;;;;;;5022057;28;20427;-28
2024/02/15 05:27:36;;;;;;;6.33;3.13;;;12.40;99.90;;;;;;5022034;28;20522;-28
2024/02/15 05:30:08;;;;;;;4.27;3.40;;;12.40;99.90;;;;;;5027870;28;20437;-27
2024/02/15 05:32:41;;;;;;;4.30;3.00;;;12.40;99.90;;;;;;5058072;28;20516;-28
2024/02/15 05:35:11;;;;;;;4.13;3.80;;;12.40;99.90;;;;;;5046710;28;21001;-29
2024/02/15 05:37:42;;;;;;;3.60;3.30;;;12.40;99.90;;;;;;5039839;28;20941;-28
2024/02/15 05:40:14;;;;;;;4.70;4.20;;;12.40;99.90;;;;;;5048305;28;20434;-28
2024/02/15 05:42:49;;;;;;;4.00;3.60;;;12.40;99.90;;;;;;5049467;28;21091;-27
2024/02/15 05:45:29;;;;;;;4.20;3.10;;;12.40;99.90;;;;;;5058773;28;20541;-28
2024/02/15 05:47:55;;;;;;;3.77;3.47;;;12.40;99.90;;;;;;5054899;28;20431;-27
2024/02/15 05:50:27;;;;;;;4.87;4.00;;;12.40;99.90;;;;;;5044805;28;21222;-27
2024/02/15 05:52:56;;;;;;;3.70;3.37;;;12.40;99.90;;;;;;5044074;28;20490;-27
2024/02/15 05:55:26;;;;;;;3.40;3.03;;;12.40;99.90;;;;;;5021608;28;20452;-28
2024/02/15 05:57:53;;;;;;;6.20;3.83;;;12.40;99.90;;;;;;5005808;28;20457;-28
2024/02/15 06:00:21;;;;;;;4.90;3.43;;;12.40;99.90;;;;;;5048117;28;20461;-27
2024/02/15 06:02:49;;;;;;;3.70;3.40;;;12.40;99.90;;;;;;5058686;28;20465;-28
2024/02/15 06:05:16;;;;;;;4.20;3.57;;;12.40;99.90;;;;;;5026717;28;20434;-26
2024/02/15 06:07:43;;;;;;;4.50;3.00;;;12.40;99.90;;;;;;5051207;28;20422;-27
2024/02/15 06:10:09;;;;;;;3.57;3.20;;;12.40;99.90;;;;;;5062478;28;20495;-27
2024/02/15 06:12:35;;;;;;;5.07;3.53;;;12.40;99.90;;;;;;5035524;28;20447;-28
2024/02/15 06:15:05;;;;;;;4.07;3.20;;;12.40;99.90;;;;;;5044051;28;20446;-28
2024/02/15 06:17:33;;;;;;;3.40;3.10;;;12.40;99.90;;;;;;5026302;28;20438;-28
2024/02/15 06:20:02;;;;;;;5.37;3.63;;;12.40;99.90;;;;;;5044011;28;20458;-27
2024/02/15 06:22:31;;;;;;;4.83;3.20;;;12.40;99.90;;;;;;5031699;28;21040;-28
2024/02/15 06:24:57;;;;;;;4.67;3.30;;;12.40;99.90;;;;;;5024924;28;20518;-28
2024/02/15 06:27:24;;;;;;;3.93;3.13;;;12.40;99.90;;;;;;5024098;28;20523;-28
2024/02/15 06:40:49;;;;;;;3.80;3.30;;;12.40;99.90;;;;;;5024968;28;20797;-27
2024/02/15 06:43:16;;;;;;;3.03;2.50;;;12.40;99.90;;;;;;5042855;28;20479;-26
2024/02/15 06:45:46;;;;;;;4.80;3.40;;;12.40;99.90;;;;;;5025091;28;20423;-28
2024/02/15 06:48:13;;;;;;;7.70;3.40;;;12.40;99.90;;;;;;5042126;28;20780;-28
2024/02/15 06:50:39;;;;;;;5.27;2.90;;;12.40;99.90;;;;;;5024312;28;20426;-28
2024/02/15 06:53:05;;;;;;;4.00;3.57;;;12.40;99.90;;;;;;5042997;28;20813;-26
2024/02/15 06:55:33;;;;;;;3.50;3.20;;;12.40;99.90;;;;;;5032043;28;20500;-28
2024/02/15 06:58:00;;;;;;;5.43;2.87;;;12.40;99.90;;;;;;5059543;28;20975;-27
2024/02/15 07:00:26;;;;;;;4.23;3.27;;;12.40;99.90;;;;;;5059862;28;20477;-27
2024/02/15 07:02:53;;;;;;;3.47;2.80;;;12.40;99.90;;;;;;5024418;28;20913;-28
2024/02/15 07:05:23;;;;;;;4.27;3.00;;;12.40;99.90;;;;;;5042613;28;21192;-27
2024/02/15 07:07:49;;;;;;;3.33;3.03;;;12.40;99.90;;;;;;5024517;28;20419;-27
2024/02/15 07:10:18;;;;;;;4.03;3.63;;;12.40;99.90;;;;;;5024935;28;20435;-27
2024/02/15 07:12:44;;;;;;;3.17;2.60;;;12.40;99.90;;;;;;5041700;28;20972;-28
2024/02/15 07:15:17;;;;;;;3.93;3.00;;;12.40;99.90;;;;;;5041444;28;20538;-28
2024/02/15 07:17:43;;;;;;;4.00;3.20;;;12.40;99.90;;;;;;5052219;28;20430;-28
2024/02/15 07:20:17;;;;;;;4.40;2.90;;;12.40;99.90;;;;;;5041754;28;20889;-27
2024/02/15 07:22:46;;;;;;;3.23;2.63;;;12.40;99.90;;;;;;5041908;28;20967;-27
2024/02/15 07:25:14;;;;;;;4.63;2.87;;;12.40;99.90;;;;;;5042671;28;20441;-27
2024/02/15 07:27:40;;;;;;;4.03;2.80;;;12.40;99.90;;;;;;5043030;28;20423;-27
2024/02/15 07:30:08;;;;;;;4.80;3.57;;;12.40;99.90;;;;;;5042715;28;20496;-26
2024/02/15 07:32:35;;;;;;;5.60;3.30;;;12.40;99.90;;;;;;5056120;28;20450;-27
2024/02/15 07:35:07;;;;;;;3.37;3.07;;;12.40;99.90;;;;;;5057794;28;20439;-28
2024/02/15 07:37:34;;;;;;;3.50;2.80;;;12.40;99.90;;;;;;5043452;28;20854;-27
2024/02/15 07:40:02;;;;;;;5.50;3.20;;;12.40;99.90;;;;;;5041629;28;20821;-27
2024/02/15 07:42:28;;;;;;;4.63;3.30;;;12.40;99.90;;;;;;5041502;28;20471;-27
2024/02/15 07:44:57;;;;;;;4.17;3.40;;;12.40;99.90;;;;;;5040261;28;20471;-28
2024/02/15 07:47:32;;;;;;;4.73;3.17;;;12.40;99.90;;;;;;5041481;28;20427;-27
2024/02/15 07:49:59;;;;;;;5.40;3.30;;;12.40;99.90;;;;;;5041643;28;20418;-28
2024/02/15 07:52:30;;;;;;;3.63;2.70;;;12.50;99.90;;;;;;5052287;28;20442;-27
2024/02/15 07:54:56;;;;;;;3.93;2.97;;;12.40;99.90;;;;;;5061167;28;20525;-26
2024/02/15 07:57:22;;;;;;;3.97;3.10;;;12.40;99.90;;;;;;5042377;28;21018;-27
2024/02/15 07:59:49;;;;;;;3.57;2.93;;;12.40;99.90;;;;;;5042521;28;20269;-26
2024/02/15 08:02:22;;;;;;;4.87;3.33;;;12.40;99.90;;;;;;5019223;28;20463;-28
2024/02/15 08:04:53;;;;;;;3.60;3.20;;;12.40;99.90;;;;;;5049260;28;21187;-27
2024/02/15 08:07:20;;;;;;;7.87;3.20;;;12.40;99.90;;;;;;5040479;28;20446;-28
2024/02/15 08:09:50;;;;;;;4.53;3.37;;;12.40;99.90;;;;;;5040735;28;20438;-28
2024/02/15 08:12:18;;;;;;;4.50;3.13;;;12.40;99.90;;;;;;5040211;28;20422;-26
2024/02/15 08:14:47;;;;;;;5.30;3.10;;;12.40;99.90;;;;;;5040881;28;20427;-27
2024/02/15 08:17:16;;;;;;;3.67;2.87;;;12.40;99.90;;;;;;5053972;28;20483;-27
2024/02/15 08:19:44;;;;;;;4.10;2.97;;;12.40;99.90;;;;;;5050311;28;20462;-28
2024/02/15 08:22:10;;;;;;;5.23;3.03;;;12.40;99.90;;;;;;5053705;28;20432;-28
2024/02/15 08:24:37;;;;;;;8.10;3.10;;;12.40;99.90;;;;;;5039804;28;20450;-28
2024/02/15 08:27:04;;;;;;;3.83;3.53;;;12.40;99.90;;;;;;5031552;28;20434;-26
2024/02/15 08:29:33;;;;;;;5.40;3.03;;;12.40;99.90;;;;;;5053560;28;21149;-26
2024/02/15 08:31:59;;;;;;;4.57;3.00;;;12.50;99.90;;;;;;5052915;28;20433;-27
2024/02/15 08:34:25;;;;;;;4.00;3.50;;;12.50;99.90;;;;;;5039145;28;20429;-26
2024/02/15 08:36:51;;;;;;;4.87;3.00;;;12.50;99.90;;;;;;5053232;28;20511;-27
2024/02/15 08:39:17;;;;;;;5.10;3.00;;;12.50;99.90;;;;;;5022321;28;20868;-26
2024/02/15 08:41:43;;;;;;;4.70;3.00;;;12.50;99.90;;;;;;5036681;28;20418;-27
2024/02/15 08:44:11;;;;;;;4.00;3.50;;;12.50;99.90;;;;;;5019363;28;20573;-26
2024/02/15 08:46:39;;;;;;;4.20;3.30;;;12.40;99.90;;;;;;5054294;28;20421;-27
2024/02/15 08:49:10;;;;;;;3.00;2.70;;;12.50;99.90;;;;;;5055814;28;20425;-26
2024/02/15 08:51:37;;;;;;;5.97;3.80;;;12.50;99.90;;;;;;5052050;28;20531;-27
2024/02/15 08:54:03;;;;;;;4.30;3.63;;;12.50;99.90;;;;;;5051756;28;20442;-26
2024/02/15 08:56:35;;;;;;;3.20;2.57;;;12.50;99.90;;;;;;5046862;28;20418;-26
2024/02/15 08:59:03;;;;;;;3.67;3.30;;;12.50;99.90;;;;;;5050094;28;20545;-27
2024/02/15 09:01:30;;;;;;;3.50;3.20;;;12.50;99.90;;;;;;5048066;28;20446;-26
2024/02/15 09:03:57;;;;;;;4.43;3.10;;;12.50;99.90;;;;;;5034304;28;20693;-27
2024/02/15 09:06:23;;;;;;;4.30;2.97;;;12.50;99.90;;;;;;5034163;28;20505;-26
2024/02/15 09:08:51;;;;;;;4.00;2.93;;;12.50;99.90;;;;;;5039471;28;20495;-26
2024/02/15 09:11:17;;;;;;;6.20;3.60;;;12.50;99.90;;;;;;5055796;28;20421;-26
2024/02/15 09:13:43;;;;;;;5.07;3.00;;;12.50;99.90;;;;;;5032482;28;20511;-27
2024/02/15 09:16:11;;;;;;;5.57;3.10;;;12.50;99.90;;;;;;5056845;28;20429;-26
2024/02/15 09:18:38;;;;;;;7.60;3.67;;;12.50;99.90;;;;;;5033435;28;20491;-27
2024/02/15 09:21:04;;;;;;;7.10;3.40;;;12.50;99.90;;;;;;5037029;28;20525;-26
2024/02/15 09:23:31;;;;;;;2.93;2.63;;;12.50;99.90;;;;;;5054488;28;20643;-26
2024/02/15 09:25:57;;;;;;;8.80;3.87;;;12.50;99.90;;;;;;5035650;28;20538;-27
2024/02/15 09:28:23;;;;;;;4.80;3.00;;;12.50;99.90;;;;;;5033192;28;20511;-26
2024/02/15 09:30:52;;;;;;;6.33;3.67;;;12.50;99.90;;;;;;5032179;28;20418;-26
2024/02/15 09:33:21;;;;;;;3.63;2.80;;;12.50;99.90;;;;;;5050230;28;20490;-26
2024/02/15 09:35:49;;;;;;;4.93;3.03;;;12.50;99.90;;;;;;5053791;28;20441;-27
2024/02/15 09:38:16;;;;;;;7.23;3.20;;;12.50;99.90;;;;;;5035064;28;20457;-26
2024/02/15 09:40:45;;;;;;;9.13;3.40;;;12.60;99.90;;;;;;5058320;28;20441;-26
2024/02/15 09:43:15;;;;;;;9.37;3.40;;;12.60;99.90;;;;;;5035138;28;20463;-26
2024/02/15 09:45:41;;;;;;;6.00;3.70;;;12.60;99.90;;;;;;5053721;28;20447;-26
2024/02/15 09:48:10;;;;;;;8.00;3.37;;;12.50;99.90;;;;;;5037464;28;20437;-26
2024/02/15 09:50:42;;;;;;;4.90;3.37;;;12.60;99.90;;;;;;5051099;28;20426;-26
2024/02/15 09:53:09;;;;;;;3.03;2.73;;;12.60;99.90;;;;;;5037103;28;20540;-27
2024/02/15 09:55:41;;;;;;;6.80;3.30;;;12.60;99.90;;;;;;5056766;28;21208;-27
2024/02/15 09:58:09;;;;;;;6.53;3.03;;;12.60;99.90;;;;;;5052717;28;21122;-26
2024/02/15 10:00:38;;;;;;;6.43;3.77;;;12.60;99.90;;;;;;5032869;28;20417;-25
2024/02/15 10:03:09;;;;;;;3.67;3.30;;;12.60;99.90;;;;;;5054690;23;20508;-74
2024/02/15 10:05:36;;;;;;;6.17;3.30;;;12.50;99.90;;;;;;5016666;28;21107;-73
2024/02/15 10:08:07;;;;;;;3.70;3.20;;;12.60;99.90;;;;;;5019859;28;20439;-73
2024/02/15 10:10:35;;;;;;;4.23;2.80;;;12.60;99.90;;;;;;5004221;28;20443;-73
2024/02/15 10:13:01;;;;;;;8.93;3.43;;;12.60;99.90;;;;;;5037440;28;20774;-73
2024/02/15 10:15:29;;;;;;;6.40;3.17;;;12.60;99.90;;;;;;5009822;28;20833;-71
2024/02/15 10:17:56;;;;;;;5.37;3.23;;;12.60;99.90;;;;;;5039812;28;20491;-72
2024/02/15 10:20:26;;;;;;;4.80;2.77;;;12.60;99.90;;;;;;5043600;28;21291;-72
2024/02/15 10:23:08;;;;;;;7.57;3.00;;;12.60;99.90;;;;;;5040327;28;20502;-72
2024/02/15 10:25:35;;;;;;;4.00;3.33;;;12.70;99.90;;;;;;5040200;28;20450;-71
2024/02/15 10:28:08;;;;;;;4.60;3.03;;;12.60;99.90;;;;;;5037565;28;20447;-71
2024/02/15 10:30:35;;;;;;;8.03;3.60;;;12.60;99.90;;;;;;5038940;28;20434;-71
2024/02/15 10:33:08;;;;;;;4.37;2.70;;;12.60;99.90;;;;;;5022562;28;20984;-71
2024/02/15 10:35:36;;;;;;;6.00;3.60;;;12.60;99.90;;;;;;5027414;28;20925;-71
2024/02/15 10:38:08;;;;;;;4.27;3.00;;;12.70;99.90;;;;;;5020999;28;21073;-74
2024/02/15 10:40:34;;;;;;;6.63;3.60;;;12.70;99.90;;;;;;5022608;28;20419;-72
2024/02/15 10:43:06;;;;;;;5.27;3.20;;;12.70;99.90;;;;;;5021590;28;20474;-71
2024/02/15 10:45:36;;;;;;;3.20;2.97;;;12.70;99.90;;;;;;5022195;28;20449;-72
2024/02/15 10:48:05;;;;;;;4.47;3.10;;;12.70;99.90;;;;;;5037290;28;20462;-71
2024/02/15 10:50:32;;;;;;;4.47;3.20;;;12.70;99.90;;;;;;5020661;28;20430;-72
2024/02/15 10:52:59;;;;;;;10.23;3.40;;;12.70;99.90;;;;;;5042656;28;20545;-72
2024/02/15 10:56:06;;;;;;;7.40;3.33;;;12.70;99.90;;;;;;5039675;28;20437;-71
2024/02/15 10:58:37;;;;;;;6.63;3.23;;;12.70;99.90;;;;;;5030108;28;20473;-71
2024/02/15 11:01:10;;;;;;;5.60;3.70;;;12.70;99.90;;;;;;5022743;28;20488;-71
2024/02/15 11:03:48;;;;;;;6.53;3.17;;;12.70;99.90;;;;;;5021077;28;20853;-71
2024/02/15 11:06:15;;;;;;;7.23;3.17;;;12.70;99.90;;;;;;5039363;28;20439;-72
2024/02/15 11:08:44;;;;;;;5.10;3.03;;;12.70;99.90;;;;;;5022213;28;20443;-72
2024/02/15 11:11:14;;;;;;;5.67;2.83;;;12.80;99.90;;;;;;5003655;28;20474;-72
2024/02/15 11:13:42;;;;;;;4.77;3.37;;;12.80;99.90;;;;;;5039853;28;20450;-73
2024/02/15 11:16:08;;;;;;;4.27;3.03;;;12.80;99.90;;;;;;5021454;28;20488;-72
2024/02/15 11:18:48;;;;;;;4.10;2.87;;;12.80;99.90;;;;;;5022597;28;20454;-72
2024/02/15 11:21:16;;;;;;;6.50;3.20;;;12.80;99.90;;;;;;5036790;28;20493;-72
2024/02/15 11:23:45;;;;;;;4.93;2.80;;;12.80;99.90;;;;;;5039321;28;20462;-72
2024/02/15 11:26:47;;;;;;;5.83;3.67;;;12.80;99.90;;;;;;5005096;28;21132;-72
2024/02/15 11:29:51;;;;;;;5.23;3.13;;;12.80;99.90;;;;;;5038570;28;20517;-72
2024/02/15 11:32:39;;;;;;;5.53;3.50;;;12.80;99.90;;;;;;5040497;28;20438;-73
2024/02/15 11:35:12;;;;;;;3.30;3.00;;;12.80;99.90;;;;;;5018422;28;20462;-72
2024/02/15 11:37:53;;;;;;;4.30;3.07;;;12.80;99.90;;;;;;5022206;28;20451;-72
2024/02/15 11:40:23;;;;;;;10.80;3.13;;;12.80;99.90;;;;;;5041081;28;20438;-72
2024/02/15 11:42:52;;;;;;;5.97;3.30;;;12.80;99.90;;;;;;5038940;28;20482;-72
2024/02/15 11:45:19;;;;;;;4.63;3.27;;;12.90;99.90;;;;;;5021044;28;20459;-72
2024/02/15 11:47:53;;;;;;;4.90;3.23;;;12.90;99.90;;;;;;5018493;28;20451;-72
2024/02/15 11:50:22;;;;;;;4.07;3.03;;;12.90;99.90;;;;;;5021299;28;20465;-72
2024/02/15 11:52:49;;;;;;;4.70;2.80;;;12.90;99.90;;;;;;5022908;28;20496;-72
2024/02/15 11:55:22;;;;;;;5.70;2.70;;;12.90;99.90;;;;;;5004618;28;20427;-73
2024/02/15 11:58:05;;;;;;;5.00;3.07;;;12.90;99.90;;;;;;5037928;28;20450;-72
2024/02/15 12:20:06;;;;;;;4.10;2.83;;;13.00;99.90;;;;;;5080061;28;20855;-33
2024/02/15 12:22:40;;;;;;;3.90;2.80;;;13.00;99.90;;;;;;5071410;28;20893;-33
2024/02/15 12:25:13;;;;;;;3.77;3.10;;;13.00;99.90;;;;;;5061166;28;20426;-31
2024/02/15 12:27:41;;;;;;;4.13;2.80;;;13.00;99.90;;;;;;5042644;28;20819;-33
2024/02/15 12:30:12;;;;;;;7.30;3.53;;;13.10;99.90;;;;;;5047171;28;20437;-34
2024/02/15 12:32:38;;;;;;;4.17;2.90;;;13.10;99.90;;;;;;5049544;28;20516;-30
2024/02/15 12:35:20;;;;;;;2.90;2.60;;;13.10;99.90;;;;;;5068257;28;20429;-33
2024/02/15 12:37:47;;;;;;;3.70;2.70;;;13.10;99.90;;;;;;5062286;28;20463;-32
2024/02/15 12:40:22;;;;;;;7.40;3.53;;;13.10;99.90;;;;;;5080687;28;20413;-35
2024/02/15 12:42:48;;;;;;;3.77;2.53;;;13.20;99.90;;;;;;5061853;28;20518;-32
2024/02/15 12:45:21;;;;;;;3.43;3.03;;;13.10;99.90;;;;;;5059799;28;20421;-32
2024/02/15 12:47:51;;;;;;;6.53;2.90;;;13.20;99.90;;;;;;5061798;28;21007;-29
2024/02/15 12:50:21;;;;;;;3.90;2.80;;;13.20;99.90;;;;;;5054767;28;20426;-34
2024/02/15 12:52:50;;;;;;;6.70;3.00;;;13.20;99.90;;;;;;5060294;28;20479;-30
2024/02/15 12:55:24;;;;;;;9.30;3.33;;;13.20;99.90;;;;;;5060541;28;20876;-31
2024/02/15 12:57:52;;;;;;;5.97;3.33;;;13.20;99.90;;;;;;5042430;28;20410;-35
2024/02/15 13:00:32;;;;;;;5.07;2.70;;;13.30;99.90;;;;;;5042406;28;20414;-31
2024/02/15 13:03:03;;;;;;;3.87;3.03;;;13.30;99.90;;;;;;5033362;28;20996;-30
2024/02/15 13:05:31;;;;;;;4.33;2.90;;;13.30;99.90;;;;;;5060387;28;20410;-34
2024/02/15 13:08:01;;;;;;;4.60;3.03;;;13.30;99.90;;;;;;5060152;28;20442;-30
2024/02/15 13:10:28;;;;;;;4.60;2.93;;;13.30;99.90;;;;;;5060437;28;20422;-34
2024/02/15 13:12:55;;;;;;;3.37;2.63;;;13.30;99.90;;;;;;5060046;28;20481;-33
2024/02/15 13:15:26;;;;;;;5.37;2.90;;;13.30;99.90;;;;;;5060107;28;20459;-32
2024/02/15 13:17:56;;;;;;;5.30;3.20;;;13.30;99.90;;;;;;5059640;28;20478;-29
2024/02/15 13:20:37;;;;;;;4.80;3.00;;;13.40;99.90;;;;;;5057792;28;20933;-29
2024/02/15 13:23:15;;;;;;;3.73;2.47;;;13.40;99.90;;;;;;5059903;28;20487;-32
2024/02/15 13:25:42;;;;;;;3.53;2.50;;;13.40;99.90;;;;;;5059155;28;20426;-32